American Strong — WDJ3172 — position and weather

sailwx.info

Track history (hours):
 
Tides and Currents Weather Stations Pressure Air Temp Water Temp Dewpoint Dewpoint Depression Visibility Wind Speed Wind Dir Waves Ship Positions

American Strong

Owner: American Commercial Lines LLC, Jeffersonville, IN. More information available from US FCC via Universal Licensing System and Coast Guard Vessel Documentation Center.

Last reported at 2017-Sep-10 17:20 UTC. Time now 2017-Sep-20 01:56 UTC.
Position N 29°23' W 094°53'.
Warning: this ship's position is 9 days out of date.

Length 26 m; draft 3.1 m.

Type: Towing. MMSI: 367765490.

Date/timePositionNaut miles runAvg speedWind from/ knotsBaromVisibWave heightAir tempDewpointWater temp
2017-Sep-10 17:20N 29°23' W 094°53'  
2017-Sep-08 10:07N 29°30' W 094°35'58 6.3
2017-Sep-08 00:51N 30°04' W 093°40'2 5.9
2017-Sep-08 00:30N 30°04' W 093°38'3 5.4
2017-Sep-07 23:59N 30°04' W 093°35'2 4.7
2017-Sep-07 23:30N 30°04' W 093°32'2 4.1
2017-Sep-07 23:00N 30°04' W 093°30'2 4.2
2017-Sep-07 22:30N 30°04' W 093°28'2 4.1
2017-Sep-07 22:00N 30°04' W 093°25'2 3.3
2017-Sep-07 21:30N 30°04' W 093°23'0 0.1
2017-Sep-07 21:00N 30°04' W 093°23'1 2.2
2017-Sep-07 20:30N 30°04' W 093°22'0 0.1
2017-Sep-07 20:00N 30°04' W 093°22'1 1.4
2017-Sep-07 19:31N 30°04' W 093°21'0 0.1
2017-Sep-07 19:00N 30°04' W 093°21'0 0.0
2017-Sep-07 18:30N 30°04' W 093°21'0 0.0
2017-Sep-07 18:00N 30°04' W 093°21'0 0.0
2017-Sep-07 17:30N 30°04' W 093°21'0 0.0
2017-Sep-07 17:00N 30°04' W 093°21'0 0.0
2017-Sep-07 16:30N 30°04' W 093°21'0 0.0
2017-Sep-07 16:00N 30°04' W 093°21'0 0.0
2017-Sep-07 15:30N 30°04' W 093°21'0 0.7
2017-Sep-07 15:00N 30°04' W 093°22'1 2.5
2017-Sep-07 14:30N 30°04' W 093°21'1 1.0
2017-Sep-07 13:15N 30°05' W 093°20'4 5.7
2017-Sep-07 12:28N 30°10' W 093°19'2 3.3
2017-Sep-07 11:59N 30°11' W 093°18'0 0.0
2017-Sep-07 11:30N 30°11' W 093°18'0 0.0
2017-Sep-07 11:00N 30°11' W 093°18'0 0.0
2017-Sep-07 10:29N 30°11' W 093°18'0 0.0
2017-Sep-07 10:00N 30°11' W 093°18'0 0.0
2017-Sep-07 09:30N 30°11' W 093°18'0 0.0
2017-Sep-07 09:00N 30°11' W 093°18'0 0.0
2017-Sep-07 08:30N 30°11' W 093°18'0 0.0
2017-Sep-07 08:00N 30°11' W 093°18'0 0.0
2017-Sep-07 07:30N 30°11' W 093°18'0 0.0
2017-Sep-07 07:00N 30°11' W 093°18'0 0.0
2017-Sep-07 06:30N 30°11' W 093°18'0 0.0
2017-Sep-07 06:00N 30°11' W 093°18'0 0.0
2017-Sep-07 05:30N 30°11' W 093°18'0 0.0
2017-Sep-07 05:00N 30°11' W 093°18'0 0.0
2017-Sep-07 04:29N 30°11' W 093°18'0 0.0
2017-Sep-07 04:00N 30°11' W 093°18'0 0.0
2017-Sep-07 03:30N 30°11' W 093°18'0 0.0
2017-Sep-07 03:00N 30°11' W 093°18'0 0.0
2017-Sep-07 02:30N 30°11' W 093°18'0 0.0
2017-Sep-07 02:00N 30°11' W 093°18'0 0.0
2017-Sep-07 01:30N 30°11' W 093°18'0 0.0
2017-Sep-07 01:00N 30°11' W 093°18'0 0.0
2017-Sep-07 00:30N 30°11' W 093°18'0 0.0
2017-Sep-07 00:00N 30°11' W 093°18'0 0.0
2017-Sep-06 23:31N 30°11' W 093°18'0 0.0
2017-Sep-06 23:01N 30°11' W 093°18'0 0.0
2017-Sep-06 22:31N 30°11' W 093°18'0 0.0
2017-Sep-06 22:01N 30°11' W 093°18'0 0.0
2017-Sep-06 21:31N 30°11' W 093°18'0 0.0
2017-Sep-06 21:00N 30°11' W 093°18'0 0.0
2017-Sep-06 20:31N 30°11' W 093°18'0 0.0
2017-Sep-06 20:01N 30°11' W 093°18'0 0.0
2017-Sep-06 19:30N 30°11' W 093°18'0 0.0
2017-Sep-06 19:01N 30°11' W 093°18'0 0.0
2017-Sep-06 18:31N 30°11' W 093°18'0 0.0
2017-Sep-06 18:01N 30°11' W 093°18'0 0.0
2017-Sep-06 17:31N 30°11' W 093°18'0 0.0
2017-Sep-06 17:01N 30°11' W 093°18'0 0.0
2017-Sep-06 16:30N 30°11' W 093°18'0 0.0
2017-Sep-06 16:00N 30°11' W 093°18'0 0.0
2017-Sep-06 15:30N 30°11' W 093°18'0 0.0
2017-Sep-06 15:01N 30°11' W 093°18'0 0.0
2017-Sep-06 14:30N 30°11' W 093°18'0 0.0
2017-Sep-06 14:01N 30°11' W 093°18'0 0.0
2017-Sep-06 13:30N 30°11' W 093°18'0 0.0
2017-Sep-06 13:01N 30°11' W 093°18'0 0.0
2017-Sep-06 12:31N 30°11' W 093°18'0 0.0
2017-Sep-06 12:00N 30°11' W 093°18'0 0.0
2017-Sep-06 11:30N 30°11' W 093°18'0 0.0
2017-Sep-06 11:01N 30°11' W 093°18'0 0.0
2017-Sep-06 10:30N 30°11' W 093°18'0 0.0
2017-Sep-06 10:00N 30°11' W 093°18'0 0.0
2017-Sep-06 09:31N 30°11' W 093°18'0 0.0
2017-Sep-06 09:00N 30°11' W 093°18'0 0.0
2017-Sep-06 08:31N 30°11' W 093°18'0 0.0
2017-Sep-06 08:01N 30°11' W 093°18'0 0.0
2017-Sep-06 07:31N 30°11' W 093°18'0 0.0
2017-Sep-06 07:01N 30°11' W 093°18'0 0.0
2017-Sep-06 06:31N 30°11' W 093°18'0 0.0
2017-Sep-06 06:00N 30°11' W 093°18'0 0.0
2017-Sep-06 05:30N 30°11' W 093°18'0 0.0
2017-Sep-06 05:01N 30°11' W 093°18'0 0.0
2017-Sep-06 04:31N 30°11' W 093°18'0 0.0
2017-Sep-06 04:01N 30°11' W 093°18'0 0.0
2017-Sep-06 03:31N 30°11' W 093°18'0 0.0
2017-Sep-06 03:01N 30°11' W 093°18'0 0.0
2017-Sep-06 02:31N 30°11' W 093°18'0 0.0
2017-Sep-06 02:01N 30°11' W 093°18'0 0.0
2017-Sep-06 01:30N 30°11' W 093°18'0 0.0
2017-Sep-06 01:00N 30°11' W 093°18'0 0.0
2017-Sep-06 00:30N 30°11' W 093°18'0 0.0
2017-Sep-06 00:00N 30°11' W 093°18'0 0.0
2017-Sep-05 23:30N 30°11' W 093°18'0 0.0
2017-Sep-05 23:00N 30°11' W 093°18'0 0.0
2017-Sep-05 22:30N 30°11' W 093°18'0 0.0
2017-Sep-05 22:00N 30°11' W 093°18'0 0.0
2017-Sep-05 21:30N 30°11' W 093°18'0 0.0
2017-Sep-05 21:00N 30°11' W 093°18'0 0.0
2017-Sep-05 20:31N 30°11' W 093°18'0 0.4
2017-Sep-05 20:00N 30°11' W 093°19'0 0.0
2017-Sep-05 19:30N 30°11' W 093°19'0 0.0
2017-Sep-05 19:00N 30°11' W 093°19'0 0.0
2017-Sep-05 18:30N 30°11' W 093°19'0 0.0
2017-Sep-05 18:00N 30°11' W 093°19'0 0.0
2017-Sep-05 17:30N 30°11' W 093°19'0 0.0
2017-Sep-05 17:00N 30°11' W 093°19'0 0.0
2017-Sep-05 16:30N 30°11' W 093°19'0 0.0
2017-Sep-05 16:00N 30°11' W 093°19'0 0.0
2017-Sep-05 15:30N 30°11' W 093°19'0 0.0
2017-Sep-05 15:00N 30°11' W 093°19'0 0.0
2017-Sep-05 14:30N 30°11' W 093°19'0 0.0
2017-Sep-05 14:01N 30°11' W 093°19'0 0.0
2017-Sep-05 13:30N 30°11' W 093°19'0 0.0
2017-Sep-05 13:00N 30°11' W 093°19'0 0.0
2017-Sep-05 12:30N 30°11' W 093°19'0 0.0
2017-Sep-05 12:01N 30°11' W 093°19'0 0.0
2017-Sep-05 11:30N 30°11' W 093°19'0 0.0
2017-Sep-05 11:01N 30°11' W 093°19'0 0.0
2017-Sep-05 10:30N 30°11' W 093°19'0 0.0
2017-Sep-05 10:00N 30°11' W 093°19'0 0.0
2017-Sep-05 09:31N 30°11' W 093°19'0 0.0
2017-Sep-05 09:00N 30°11' W 093°19'0 0.0
2017-Sep-05 08:30N 30°11' W 093°19'0 0.0
2017-Sep-05 08:00N 30°11' W 093°19'0 0.0
2017-Sep-05 07:30N 30°11' W 093°19'0 0.0
2017-Sep-05 07:00N 30°11' W 093°19'0 0.0
2017-Sep-05 06:30N 30°11' W 093°19'0 0.0
2017-Sep-05 06:00N 30°11' W 093°19'0 0.0
2017-Sep-05 05:30N 30°11' W 093°19'0 0.0
2017-Sep-05 05:00N 30°11' W 093°19'0 0.0
2017-Sep-05 04:30N 30°11' W 093°19'0 0.0
2017-Sep-05 04:00N 30°11' W 093°19'0 0.0
2017-Sep-05 03:30N 30°11' W 093°19'0 0.0
2017-Sep-05 03:01N 30°11' W 093°19'0 0.0
2017-Sep-05 02:30N 30°11' W 093°19'0 0.0
2017-Sep-05 02:00N 30°11' W 093°19'0 0.0
2017-Sep-05 01:30N 30°11' W 093°19'0 0.0
2017-Sep-05 01:00N 30°11' W 093°19'0 0.0
2017-Sep-05 00:30N 30°11' W 093°19'0 0.0
2017-Sep-05 00:00N 30°11' W 093°19'0 0.0
2017-Sep-04 23:30N 30°11' W 093°19'0 0.0
2017-Sep-04 23:00N 30°11' W 093°19'0 0.2
2017-Sep-04 22:30N 30°11' W 093°19'0 0.9
2017-Sep-04 22:00N 30°11' W 093°19'3 5.5
2017-Sep-04 21:30N 30°08' W 093°20'3 5.8
2017-Sep-04 21:00N 30°05' W 093°20'2 4.1
2017-Sep-04 20:30N 30°04' W 093°21'0 0.9
2017-Sep-04 20:01N 30°04' W 093°22'0 0.9
2017-Sep-04 19:30N 30°04' W 093°22'1 2.5
2017-Sep-04 19:00N 30°04' W 093°21'1 2.4
2017-Sep-04 18:30N 30°05' W 093°20'3 5.8
2017-Sep-04 18:00N 30°08' W 093°20'3 6.8
2017-Sep-04 17:30N 30°11' W 093°18'0 0.2
2017-Sep-04 17:00N 30°11' W 093°19'0 0.0
2017-Sep-04 16:30N 30°11' W 093°19'0 0.0
2017-Sep-04 16:00N 30°11' W 093°19'0 0.0
2017-Sep-04 15:30N 30°11' W 093°19'0 0.0
2017-Sep-04 15:00N 30°11' W 093°19'0 0.0
2017-Sep-04 14:30N 30°11' W 093°19'0 0.0
2017-Sep-04 14:00N 30°11' W 093°19'0 0.0
2017-Sep-04 13:30N 30°11' W 093°19'0 0.0
2017-Sep-04 13:00N 30°11' W 093°19'0 0.0
2017-Sep-04 12:30N 30°11' W 093°19'0 0.0
2017-Sep-04 12:00N 30°11' W 093°19'0 0.0
2017-Sep-04 11:30N 30°11' W 093°19'0 0.0
2017-Sep-04 11:00N 30°11' W 093°19'0 0.0
2017-Sep-04 10:30N 30°11' W 093°19'0 0.0
2017-Sep-04 10:00N 30°11' W 093°19'0 0.0
2017-Sep-04 09:30N 30°11' W 093°19'0 0.0
2017-Sep-04 09:00N 30°11' W 093°19'0 0.0
2017-Sep-04 08:30N 30°11' W 093°19'0 0.0
2017-Sep-04 08:00N 30°11' W 093°19'0 0.0
2017-Sep-04 07:30N 30°11' W 093°19'0 0.0
2017-Sep-04 07:00N 30°11' W 093°19'0 0.0
2017-Sep-04 06:30N 30°11' W 093°19'0 0.0
2017-Sep-04 06:00N 30°11' W 093°19'0 0.0
2017-Sep-04 05:30N 30°11' W 093°19'0 0.0
2017-Sep-04 05:00N 30°11' W 093°19'0 0.0
2017-Sep-04 04:30N 30°11' W 093°19'0 0.0
2017-Sep-04 04:00N 30°11' W 093°19'0 0.0
2017-Sep-04 03:30N 30°11' W 093°19'0 0.0
2017-Sep-04 03:00N 30°11' W 093°19'0 0.0
2017-Sep-04 02:30N 30°11' W 093°19'0 0.0
2017-Sep-04 02:00N 30°11' W 093°19'0 0.0
2017-Sep-04 01:30N 30°11' W 093°19'0 0.0
2017-Sep-04 01:00N 30°11' W 093°19'0 0.0
2017-Sep-04 00:30N 30°11' W 093°19'0 0.0
2017-Sep-04 00:00N 30°11' W 093°19'0 0.0
2017-Sep-03 23:30N 30°11' W 093°19'0 0.0
2017-Sep-03 23:00N 30°11' W 093°19'0 0.0
2017-Sep-03 22:30N 30°11' W 093°19'0 0.0
2017-Sep-03 22:00N 30°11' W 093°19'0 0.0
2017-Sep-03 21:30N 30°11' W 093°19'0 0.0
2017-Sep-03 21:00N 30°11' W 093°19'0 0.0
2017-Sep-03 20:30N 30°11' W 093°19'0 0.0
2017-Sep-03 20:00N 30°11' W 093°19'0 0.0
2017-Sep-03 19:30N 30°11' W 093°19'0 0.0
2017-Sep-03 19:00N 30°11' W 093°19'0 0.0
2017-Sep-03 18:30N 30°11' W 093°19'0 0.0
2017-Sep-03 18:00N 30°11' W 093°19'0 0.0
2017-Sep-03 17:30N 30°11' W 093°19'0 0.0
2017-Sep-03 17:00N 30°11' W 093°19'0 0.0
2017-Sep-03 16:30N 30°11' W 093°19'0 0.0
2017-Sep-03 16:00N 30°11' W 093°19'0 0.0
2017-Sep-03 15:30N 30°11' W 093°19'0 0.0
2017-Sep-03 15:00N 30°11' W 093°19'0 0.1
2017-Sep-03 14:00N 30°11' W 093°18'1 2.3
2017-Sep-03 13:30N 30°10' W 093°19'2 4.8
2017-Sep-03 13:00N 30°08' W 093°20'3 5.4
2017-Sep-03 12:30N 30°05' W 093°20'2 4.4
2017-Sep-03 12:00N 30°04' W 093°22'0 0.2
2017-Sep-03 11:30N 30°04' W 093°22'0 0.0
2017-Sep-03 11:00N 30°04' W 093°22'0 0.0
2017-Sep-03 10:30N 30°04' W 093°22'0 0.0
2017-Sep-03 10:00N 30°04' W 093°22'0 0.0
2017-Sep-03 09:30N 30°04' W 093°22'0 0.0
2017-Sep-03 09:00N 30°04' W 093°22'0 0.0
2017-Sep-03 08:30N 30°04' W 093°22'0 0.0
2017-Sep-03 08:00N 30°04' W 093°22'0 0.0
2017-Sep-03 07:30N 30°04' W 093°22'0 0.0
2017-Sep-03 07:00N 30°04' W 093°22'0 0.0
2017-Sep-03 06:30N 30°04' W 093°22'0 0.0
2017-Sep-03 06:00N 30°04' W 093°22'0 0.0
2017-Sep-03 05:30N 30°04' W 093°22'0 0.0
2017-Sep-03 05:00N 30°04' W 093°22'0 0.0
2017-Sep-03 04:30N 30°04' W 093°22'0 0.0
2017-Sep-03 04:00N 30°04' W 093°22'0 0.0
2017-Sep-03 03:30N 30°04' W 093°22'0 0.0
2017-Sep-03 03:00N 30°04' W 093°22'0 0.0
2017-Sep-03 02:30N 30°04' W 093°22'0 0.0
2017-Sep-03 02:00N 30°04' W 093°22'0 0.0
2017-Sep-03 01:30N 30°04' W 093°22'0 0.0
2017-Sep-03 01:00N 30°04' W 093°22'0 0.0
2017-Sep-03 00:30N 30°04' W 093°22'0 0.0
2017-Sep-03 00:00N 30°04' W 093°22'0 0.0
2017-Sep-02 23:30N 30°04' W 093°22'0 0.0
2017-Sep-02 23:00N 30°04' W 093°22'0 0.0
2017-Sep-02 22:31N 30°04' W 093°22'0 0.0
2017-Sep-02 22:01N 30°04' W 093°22'0 0.0
2017-Sep-02 21:31N 30°04' W 093°22'0 0.0
2017-Sep-02 21:01N 30°04' W 093°22'0 0.0
2017-Sep-02 20:31N 30°04' W 093°22'0 0.0
2017-Sep-02 20:01N 30°04' W 093°22'0 0.0
2017-Sep-02 19:31N 30°04' W 093°22'0 0.0
2017-Sep-02 19:01N 30°04' W 093°22'0 0.0
2017-Sep-02 18:31N 30°04' W 093°22'0 0.8
2017-Sep-02 18:01N 30°04' W 093°21'0 0.3
2017-Sep-02 17:30N 30°04' W 093°21'1 1.2
2017-Sep-02 17:00N 30°04' W 093°21'2 4.1
2017-Sep-02 16:31N 30°06' W 093°19'0 0.1
2017-Sep-02 16:01N 30°06' W 093°19'3 5.6
2017-Sep-02 15:31N 30°04' W 093°22'0 0.0
2017-Sep-02 15:01N 30°04' W 093°22'0 0.0
2017-Sep-02 14:31N 30°04' W 093°22'0 0.0
2017-Sep-02 14:01N 30°04' W 093°22'0 0.0
2017-Sep-02 13:31N 30°04' W 093°22'0 0.0
2017-Sep-02 13:00N 30°04' W 093°22'0 0.0
2017-Sep-02 12:31N 30°04' W 093°22'0 0.0
2017-Sep-02 12:01N 30°04' W 093°22'0 0.0
2017-Sep-02 11:31N 30°04' W 093°22'0 0.0
2017-Sep-02 11:01N 30°04' W 093°22'0 0.0
2017-Sep-02 10:31N 30°04' W 093°22'0 0.0
2017-Sep-02 10:00N 30°04' W 093°22'0 0.0
2017-Sep-02 09:31N 30°04' W 093°22'0 0.0
2017-Sep-02 09:01N 30°04' W 093°22'0 0.0
2017-Sep-02 08:31N 30°04' W 093°22'0 0.0
2017-Sep-02 08:01N 30°04' W 093°22'0 0.0
2017-Sep-02 07:31N 30°04' W 093°22'0 0.0
2017-Sep-02 07:01N 30°04' W 093°22'0 0.0
2017-Sep-02 06:31N 30°04' W 093°22'0 0.0
2017-Sep-02 06:00N 30°04' W 093°22'0 0.0
2017-Sep-02 05:30N 30°04' W 093°22'0 0.0
2017-Sep-02 05:01N 30°04' W 093°22'0 0.0
2017-Sep-02 04:31N 30°04' W 093°22'0 0.0
2017-Sep-02 04:01N 30°04' W 093°22'0 0.0
2017-Sep-02 03:31N 30°04' W 093°22'0 0.0
2017-Sep-02 03:01N 30°04' W 093°22'0 0.0
2017-Sep-02 02:30N 30°04' W 093°22'0 0.0
2017-Sep-02 02:01N 30°04' W 093°22'0 0.0
2017-Sep-02 01:31N 30°04' W 093°22'0 0.0
2017-Sep-02 01:01N 30°04' W 093°22'0 0.0
2017-Sep-02 00:31N 30°04' W 093°22'0 0.0
2017-Sep-02 00:00N 30°04' W 093°22'0 0.0
2017-Sep-01 23:31N 30°04' W 093°22'0 0.0
2017-Sep-01 23:00N 30°04' W 093°22'0 0.0
2017-Sep-01 22:31N 30°04' W 093°22'0 0.0
2017-Sep-01 22:01N 30°04' W 093°22'0 0.0
2017-Sep-01 21:31N 30°04' W 093°22'0 0.0
2017-Sep-01 21:00N 30°04' W 093°22'0 0.0
2017-Sep-01 20:31N 30°04' W 093°22'0 0.0
2017-Sep-01 20:01N 30°04' W 093°22'0 0.0
2017-Sep-01 19:31N 30°04' W 093°22'0 0.0
2017-Sep-01 19:01N 30°04' W 093°22'0 0.0
2017-Sep-01 18:30N 30°04' W 093°22'0 0.0
2017-Sep-01 18:01N 30°04' W 093°22'0 0.0
2017-Sep-01 17:30N 30°04' W 093°22'1 1.5
2017-Sep-01 17:01N 30°04' W 093°21'1 2.5
2017-Sep-01 16:31N 30°05' W 093°20'1 2.2
2017-Sep-01 16:00N 30°06' W 093°20'0 0.0
2017-Sep-01 15:30N 30°06' W 093°20'0 0.0
2017-Sep-01 15:00N 30°06' W 093°20'0 0.1
2017-Sep-01 14:30N 30°06' W 093°20'1 2.6
2017-Sep-01 14:00N 30°07' W 093°20'3 5.5
2017-Sep-01 13:30N 30°10' W 093°19'1 2.8
2017-Sep-01 13:00N 30°11' W 093°18'0 0.0
2017-Sep-01 12:30N 30°11' W 093°18'0 0.0
2017-Sep-01 12:00N 30°11' W 093°18'0 0.0
2017-Sep-01 11:30N 30°11' W 093°18'0 0.0
2017-Sep-01 11:00N 30°11' W 093°18'0 0.0
2017-Sep-01 10:30N 30°11' W 093°18'0 0.0
2017-Sep-01 10:00N 30°11' W 093°18'0 0.0
2017-Sep-01 09:30N 30°11' W 093°18'0 0.0
2017-Sep-01 09:00N 30°11' W 093°18'0 0.0
2017-Sep-01 08:30N 30°11' W 093°18'0 0.0
2017-Sep-01 08:00N 30°11' W 093°18'0 0.0
2017-Sep-01 07:30N 30°11' W 093°18'0 0.0
2017-Sep-01 07:00N 30°11' W 093°18'0 0.0
2017-Sep-01 06:30N 30°11' W 093°18'0 0.0
2017-Sep-01 06:00N 30°11' W 093°18'0 0.0
2017-Sep-01 05:30N 30°11' W 093°18'0 0.0
2017-Sep-01 05:00N 30°11' W 093°18'0 0.0
2017-Sep-01 04:30N 30°11' W 093°18'0 0.0
2017-Sep-01 04:00N 30°11' W 093°18'0 0.0
2017-Sep-01 03:30N 30°11' W 093°18'0 0.0
2017-Sep-01 03:00N 30°11' W 093°18'0 0.0
2017-Sep-01 02:30N 30°11' W 093°18'0 0.0
2017-Sep-01 02:00N 30°11' W 093°18'0 0.0
2017-Sep-01 01:30N 30°11' W 093°18'0 0.6
2017-Sep-01 01:00N 30°11' W 093°19'0 0.0
2017-Sep-01 00:30N 30°11' W 093°19'0 0.0
2017-Sep-01 00:00N 30°11' W 093°19'0 0.0
2017-Aug-31 23:30N 30°11' W 093°19'0 0.0
2017-Aug-31 23:00N 30°11' W 093°19'0 0.0
2017-Aug-31 22:30N 30°11' W 093°19'0 0.0
2017-Aug-31 22:00N 30°11' W 093°19'0 0.0
2017-Aug-31 21:30N 30°11' W 093°19'0 0.0
2017-Aug-31 21:00N 30°11' W 093°19'0 0.0
2017-Aug-31 20:30N 30°11' W 093°19'0 0.0
2017-Aug-31 20:00N 30°11' W 093°19'0 0.0
2017-Aug-31 19:30N 30°11' W 093°19'  
Track history (hours):
 
Tides and Currents Weather Stations Pressure Air Temp Water Temp Dewpoint Dewpoint Depression Visibility Wind Speed Wind Dir Waves Ship Positions

American Strong

Owner: American Commercial Lines LLC, Jeffersonville, IN. More information available from US FCC via Universal Licensing System and Coast Guard Vessel Documentation Center.

Last reported at 2017-Sep-10 17:20 UTC. Time now 2017-Sep-20 01:56 UTC.
Position N 29°23' W 094°53'.
Warning: this ship's position is 9 days out of date.

Length 26 m; draft 3.1 m.

Type: Towing. MMSI: 367765490.

Date/timePositionNaut miles runAvg speedWind from/ knotsBaromVisibWave heightAir tempDewpointWater temp
2017-Sep-10 17:20N 29°23' W 094°53'  
2017-Sep-08 10:07N 29°30' W 094°35'58 6.3
2017-Sep-08 00:51N 30°04' W 093°40'2 5.9
2017-Sep-08 00:30N 30°04' W 093°38'3 5.4
2017-Sep-07 23:59N 30°04' W 093°35'2 4.7
2017-Sep-07 23:30N 30°04' W 093°32'2 4.1
2017-Sep-07 23:00N 30°04' W 093°30'2 4.2
2017-Sep-07 22:30N 30°04' W 093°28'2 4.1
2017-Sep-07 22:00N 30°04' W 093°25'2 3.3
2017-Sep-07 21:30N 30°04' W 093°23'0 0.1
2017-Sep-07 21:00N 30°04' W 093°23'1 2.2
2017-Sep-07 20:30N 30°04' W 093°22'0 0.1
2017-Sep-07 20:00N 30°04' W 093°22'1 1.4
2017-Sep-07 19:31N 30°04' W 093°21'0 0.1
2017-Sep-07 19:00N 30°04' W 093°21'0 0.0
2017-Sep-07 18:30N 30°04' W 093°21'0 0.0
2017-Sep-07 18:00N 30°04' W 093°21'0 0.0
2017-Sep-07 17:30N 30°04' W 093°21'0 0.0
2017-Sep-07 17:00N 30°04' W 093°21'0 0.0
2017-Sep-07 16:30N 30°04' W 093°21'0 0.0
2017-Sep-07 16:00N 30°04' W 093°21'0 0.0
2017-Sep-07 15:30N 30°04' W 093°21'0 0.7
2017-Sep-07 15:00N 30°04' W 093°22'1 2.5
2017-Sep-07 14:30N 30°04' W 093°21'1 1.0
2017-Sep-07 13:15N 30°05' W 093°20'4 5.7
2017-Sep-07 12:28N 30°10' W 093°19'2 3.3
2017-Sep-07 11:59N 30°11' W 093°18'0 0.0
2017-Sep-07 11:30N 30°11' W 093°18'0 0.0
2017-Sep-07 11:00N 30°11' W 093°18'0 0.0
2017-Sep-07 10:29N 30°11' W 093°18'0 0.0
2017-Sep-07 10:00N 30°11' W 093°18'0 0.0
2017-Sep-07 09:30N 30°11' W 093°18'0 0.0
2017-Sep-07 09:00N 30°11' W 093°18'0 0.0
2017-Sep-07 08:30N 30°11' W 093°18'0 0.0
2017-Sep-07 08:00N 30°11' W 093°18'0 0.0
2017-Sep-07 07:30N 30°11' W 093°18'0 0.0
2017-Sep-07 07:00N 30°11' W 093°18'0 0.0
2017-Sep-07 06:30N 30°11' W 093°18'0 0.0
2017-Sep-07 06:00N 30°11' W 093°18'0 0.0
2017-Sep-07 05:30N 30°11' W 093°18'0 0.0
2017-Sep-07 05:00N 30°11' W 093°18'0 0.0
2017-Sep-07 04:29N 30°11' W 093°18'0 0.0
2017-Sep-07 04:00N 30°11' W 093°18'0 0.0
2017-Sep-07 03:30N 30°11' W 093°18'0 0.0
2017-Sep-07 03:00N 30°11' W 093°18'0 0.0
2017-Sep-07 02:30N 30°11' W 093°18'0 0.0
2017-Sep-07 02:00N 30°11' W 093°18'0 0.0
2017-Sep-07 01:30N 30°11' W 093°18'0 0.0
2017-Sep-07 01:00N 30°11' W 093°18'0 0.0
2017-Sep-07 00:30N 30°11' W 093°18'0 0.0
2017-Sep-07 00:00N 30°11' W 093°18'0 0.0
2017-Sep-06 23:31N 30°11' W 093°18'0 0.0
2017-Sep-06 23:01N 30°11' W 093°18'0 0.0
2017-Sep-06 22:31N 30°11' W 093°18'0 0.0
2017-Sep-06 22:01N 30°11' W 093°18'0 0.0
2017-Sep-06 21:31N 30°11' W 093°18'0 0.0
2017-Sep-06 21:00N 30°11' W 093°18'0 0.0
2017-Sep-06 20:31N 30°11' W 093°18'0 0.0
2017-Sep-06 20:01N 30°11' W 093°18'0 0.0
2017-Sep-06 19:30N 30°11' W 093°18'0 0.0
2017-Sep-06 19:01N 30°11' W 093°18'0 0.0
2017-Sep-06 18:31N 30°11' W 093°18'0 0.0
2017-Sep-06 18:01N 30°11' W 093°18'0 0.0
2017-Sep-06 17:31N 30°11' W 093°18'0 0.0
2017-Sep-06 17:01N 30°11' W 093°18'0 0.0
2017-Sep-06 16:30N 30°11' W 093°18'0 0.0
2017-Sep-06 16:00N 30°11' W 093°18'0 0.0
2017-Sep-06 15:30N 30°11' W 093°18'0 0.0
2017-Sep-06 15:01N 30°11' W 093°18'0 0.0
2017-Sep-06 14:30N 30°11' W 093°18'0 0.0
2017-Sep-06 14:01N 30°11' W 093°18'0 0.0
2017-Sep-06 13:30N 30°11' W 093°18'0 0.0
2017-Sep-06 13:01N 30°11' W 093°18'0 0.0
2017-Sep-06 12:31N 30°11' W 093°18'0 0.0
2017-Sep-06 12:00N 30°11' W 093°18'0 0.0
2017-Sep-06 11:30N 30°11' W 093°18'0 0.0
2017-Sep-06 11:01N 30°11' W 093°18'0 0.0
2017-Sep-06 10:30N 30°11' W 093°18'0 0.0
2017-Sep-06 10:00N 30°11' W 093°18'0 0.0
2017-Sep-06 09:31N 30°11' W 093°18'0 0.0
2017-Sep-06 09:00N 30°11' W 093°18'0 0.0
2017-Sep-06 08:31N 30°11' W 093°18'0 0.0
2017-Sep-06 08:01N 30°11' W 093°18'0 0.0
2017-Sep-06 07:31N 30°11' W 093°18'0 0.0
2017-Sep-06 07:01N 30°11' W 093°18'0 0.0
2017-Sep-06 06:31N 30°11' W 093°18'0 0.0
2017-Sep-06 06:00N 30°11' W 093°18'0 0.0
2017-Sep-06 05:30N 30°11' W 093°18'0 0.0
2017-Sep-06 05:01N 30°11' W 093°18'0 0.0
2017-Sep-06 04:31N 30°11' W 093°18'0 0.0
2017-Sep-06 04:01N 30°11' W 093°18'0 0.0
2017-Sep-06 03:31N 30°11' W 093°18'0 0.0
2017-Sep-06 03:01N 30°11' W 093°18'0 0.0
2017-Sep-06 02:31N 30°11' W 093°18'0 0.0
2017-Sep-06 02:01N 30°11' W 093°18'0 0.0
2017-Sep-06 01:30N 30°11' W 093°18'0 0.0
2017-Sep-06 01:00N 30°11' W 093°18'0 0.0
2017-Sep-06 00:30N 30°11' W 093°18'0 0.0
2017-Sep-06 00:00N 30°11' W 093°18'0 0.0
2017-Sep-05 23:30N 30°11' W 093°18'0 0.0
2017-Sep-05 23:00N 30°11' W 093°18'0 0.0
2017-Sep-05 22:30N 30°11' W 093°18'0 0.0
2017-Sep-05 22:00N 30°11' W 093°18'0 0.0
2017-Sep-05 21:30N 30°11' W 093°18'0 0.0
2017-Sep-05 21:00N 30°11' W 093°18'0 0.0
2017-Sep-05 20:31N 30°11' W 093°18'0 0.4
2017-Sep-05 20:00N 30°11' W 093°19'0 0.0
2017-Sep-05 19:30N 30°11' W 093°19'0 0.0
2017-Sep-05 19:00N 30°11' W 093°19'0 0.0
2017-Sep-05 18:30N 30°11' W 093°19'0 0.0
2017-Sep-05 18:00N 30°11' W 093°19'0 0.0
2017-Sep-05 17:30N 30°11' W 093°19'0 0.0
2017-Sep-05 17:00N 30°11' W 093°19'0 0.0
2017-Sep-05 16:30N 30°11' W 093°19'0 0.0
2017-Sep-05 16:00N 30°11' W 093°19'0 0.0
2017-Sep-05 15:30N 30°11' W 093°19'0 0.0
2017-Sep-05 15:00N 30°11' W 093°19'0 0.0
2017-Sep-05 14:30N 30°11' W 093°19'0 0.0
2017-Sep-05 14:01N 30°11' W 093°19'0 0.0
2017-Sep-05 13:30N 30°11' W 093°19'0 0.0
2017-Sep-05 13:00N 30°11' W 093°19'0 0.0
2017-Sep-05 12:30N 30°11' W 093°19'0 0.0
2017-Sep-05 12:01N 30°11' W 093°19'0 0.0
2017-Sep-05 11:30N 30°11' W 093°19'0 0.0
2017-Sep-05 11:01N 30°11' W 093°19'0 0.0
2017-Sep-05 10:30N 30°11' W 093°19'0 0.0
2017-Sep-05 10:00N 30°11' W 093°19'0 0.0
2017-Sep-05 09:31N 30°11' W 093°19'0 0.0
2017-Sep-05 09:00N 30°11' W 093°19'0 0.0
2017-Sep-05 08:30N 30°11' W 093°19'0 0.0
2017-Sep-05 08:00N 30°11' W 093°19'0 0.0
2017-Sep-05 07:30N 30°11' W 093°19'0 0.0
2017-Sep-05 07:00N 30°11' W 093°19'0 0.0
2017-Sep-05 06:30N 30°11' W 093°19'0 0.0
2017-Sep-05 06:00N 30°11' W 093°19'0 0.0
2017-Sep-05 05:30N 30°11' W 093°19'0 0.0
2017-Sep-05 05:00N 30°11' W 093°19'0 0.0
2017-Sep-05 04:30N 30°11' W 093°19'0 0.0
2017-Sep-05 04:00N 30°11' W 093°19'0 0.0
2017-Sep-05 03:30N 30°11' W 093°19'0 0.0
2017-Sep-05 03:01N 30°11' W 093°19'0 0.0
2017-Sep-05 02:30N 30°11' W 093°19'0 0.0
2017-Sep-05 02:00N 30°11' W 093°19'0 0.0
2017-Sep-05 01:30N 30°11' W 093°19'0 0.0
2017-Sep-05 01:00N 30°11' W 093°19'0 0.0
2017-Sep-05 00:30N 30°11' W 093°19'0 0.0
2017-Sep-05 00:00N 30°11' W 093°19'0 0.0
2017-Sep-04 23:30N 30°11' W 093°19'0 0.0
2017-Sep-04 23:00N 30°11' W 093°19'0 0.2
2017-Sep-04 22:30N 30°11' W 093°19'0 0.9
2017-Sep-04 22:00N 30°11' W 093°19'3 5.5
2017-Sep-04 21:30N 30°08' W 093°20'3 5.8
2017-Sep-04 21:00N 30°05' W 093°20'2 4.1
2017-Sep-04 20:30N 30°04' W 093°21'0 0.9
2017-Sep-04 20:01N 30°04' W 093°22'0 0.9
2017-Sep-04 19:30N 30°04' W 093°22'1 2.5
2017-Sep-04 19:00N 30°04' W 093°21'1 2.4
2017-Sep-04 18:30N 30°05' W 093°20'3 5.8
2017-Sep-04 18:00N 30°08' W 093°20'3 6.8
2017-Sep-04 17:30N 30°11' W 093°18'0 0.2
2017-Sep-04 17:00N 30°11' W 093°19'0 0.0
2017-Sep-04 16:30N 30°11' W 093°19'0 0.0
2017-Sep-04 16:00N 30°11' W 093°19'0 0.0
2017-Sep-04 15:30N 30°11' W 093°19'0 0.0
2017-Sep-04 15:00N 30°11' W 093°19'0 0.0
2017-Sep-04 14:30N 30°11' W 093°19'0 0.0
2017-Sep-04 14:00N 30°11' W 093°19'0 0.0
2017-Sep-04 13:30N 30°11' W 093°19'0 0.0
2017-Sep-04 13:00N 30°11' W 093°19'0 0.0
2017-Sep-04 12:30N 30°11' W 093°19'0 0.0
2017-Sep-04 12:00N 30°11' W 093°19'0 0.0
2017-Sep-04 11:30N 30°11' W 093°19'0 0.0
2017-Sep-04 11:00N 30°11' W 093°19'0 0.0
2017-Sep-04 10:30N 30°11' W 093°19'0 0.0
2017-Sep-04 10:00N 30°11' W 093°19'0 0.0
2017-Sep-04 09:30N 30°11' W 093°19'0 0.0
2017-Sep-04 09:00N 30°11' W 093°19'0 0.0
2017-Sep-04 08:30N 30°11' W 093°19'0 0.0
2017-Sep-04 08:00N 30°11' W 093°19'0 0.0
2017-Sep-04 07:30N 30°11' W 093°19'0 0.0
2017-Sep-04 07:00N 30°11' W 093°19'0 0.0
2017-Sep-04 06:30N 30°11' W 093°19'0 0.0
2017-Sep-04 06:00N 30°11' W 093°19'0 0.0
2017-Sep-04 05:30N 30°11' W 093°19'0 0.0
2017-Sep-04 05:00N 30°11' W 093°19'0 0.0
2017-Sep-04 04:30N 30°11' W 093°19'0 0.0
2017-Sep-04 04:00N 30°11' W 093°19'0 0.0
2017-Sep-04 03:30N 30°11' W 093°19'0 0.0
2017-Sep-04 03:00N 30°11' W 093°19'0 0.0
2017-Sep-04 02:30N 30°11' W 093°19'0 0.0
2017-Sep-04 02:00N 30°11' W 093°19'0 0.0
2017-Sep-04 01:30N 30°11' W 093°19'0 0.0
2017-Sep-04 01:00N 30°11' W 093°19'0 0.0
2017-Sep-04 00:30N 30°11' W 093°19'0 0.0
2017-Sep-04 00:00N 30°11' W 093°19'0 0.0
2017-Sep-03 23:30N 30°11' W 093°19'0 0.0
2017-Sep-03 23:00N 30°11' W 093°19'0 0.0
2017-Sep-03 22:30N 30°11' W 093°19'0 0.0
2017-Sep-03 22:00N 30°11' W 093°19'0 0.0
2017-Sep-03 21:30N 30°11' W 093°19'0 0.0
2017-Sep-03 21:00N 30°11' W 093°19'0 0.0
2017-Sep-03 20:30N 30°11' W 093°19'0 0.0
2017-Sep-03 20:00N 30°11' W 093°19'0 0.0
2017-Sep-03 19:30N 30°11' W 093°19'0 0.0
2017-Sep-03 19:00N 30°11' W 093°19'0 0.0
2017-Sep-03 18:30N 30°11' W 093°19'0 0.0
2017-Sep-03 18:00N 30°11' W 093°19'0 0.0
2017-Sep-03 17:30N 30°11' W 093°19'0 0.0
2017-Sep-03 17:00N 30°11' W 093°19'0 0.0
2017-Sep-03 16:30N 30°11' W 093°19'0 0.0
2017-Sep-03 16:00N 30°11' W 093°19'0 0.0
2017-Sep-03 15:30N 30°11' W 093°19'0 0.0
2017-Sep-03 15:00N 30°11' W 093°19'0 0.1
2017-Sep-03 14:00N 30°11' W 093°18'1 2.3
2017-Sep-03 13:30N 30°10' W 093°19'2 4.8
2017-Sep-03 13:00N 30°08' W 093°20'3 5.4
2017-Sep-03 12:30N 30°05' W 093°20'2 4.4
2017-Sep-03 12:00N 30°04' W 093°22'0 0.2
2017-Sep-03 11:30N 30°04' W 093°22'0 0.0
2017-Sep-03 11:00N 30°04' W 093°22'0 0.0
2017-Sep-03 10:30N 30°04' W 093°22'0 0.0
2017-Sep-03 10:00N 30°04' W 093°22'0 0.0
2017-Sep-03 09:30N 30°04' W 093°22'0 0.0
2017-Sep-03 09:00N 30°04' W 093°22'0 0.0
2017-Sep-03 08:30N 30°04' W 093°22'0 0.0
2017-Sep-03 08:00N 30°04' W 093°22'0 0.0
2017-Sep-03 07:30N 30°04' W 093°22'0 0.0
2017-Sep-03 07:00N 30°04' W 093°22'0 0.0
2017-Sep-03 06:30N 30°04' W 093°22'0 0.0
2017-Sep-03 06:00N 30°04' W 093°22'0 0.0
2017-Sep-03 05:30N 30°04' W 093°22'0 0.0
2017-Sep-03 05:00N 30°04' W 093°22'0 0.0
2017-Sep-03 04:30N 30°04' W 093°22'0 0.0
2017-Sep-03 04:00N 30°04' W 093°22'0 0.0
2017-Sep-03 03:30N 30°04' W 093°22'0 0.0
2017-Sep-03 03:00N 30°04' W 093°22'0 0.0
2017-Sep-03 02:30N 30°04' W 093°22'0 0.0
2017-Sep-03 02:00N 30°04' W 093°22'0 0.0
2017-Sep-03 01:30N 30°04' W 093°22'0 0.0
2017-Sep-03 01:00N 30°04' W 093°22'0 0.0
2017-Sep-03 00:30N 30°04' W 093°22'0 0.0
2017-Sep-03 00:00N 30°04' W 093°22'0 0.0
2017-Sep-02 23:30N 30°04' W 093°22'0 0.0
2017-Sep-02 23:00N 30°04' W 093°22'0 0.0
2017-Sep-02 22:31N 30°04' W 093°22'0 0.0
2017-Sep-02 22:01N 30°04' W 093°22'0 0.0
2017-Sep-02 21:31N 30°04' W 093°22'0 0.0
2017-Sep-02 21:01N 30°04' W 093°22'0 0.0
2017-Sep-02 20:31N 30°04' W 093°22'0 0.0
2017-Sep-02 20:01N 30°04' W 093°22'0 0.0
2017-Sep-02 19:31N 30°04' W 093°22'0 0.0
2017-Sep-02 19:01N 30°04' W 093°22'0 0.0
2017-Sep-02 18:31N 30°04' W 093°22'0 0.8
2017-Sep-02 18:01N 30°04' W 093°21'0 0.3
2017-Sep-02 17:30N 30°04' W 093°21'1 1.2
2017-Sep-02 17:00N 30°04' W 093°21'2 4.1
2017-Sep-02 16:31N 30°06' W 093°19'0 0.1
2017-Sep-02 16:01N 30°06' W 093°19'3 5.6
2017-Sep-02 15:31N 30°04' W 093°22'0 0.0
2017-Sep-02 15:01N 30°04' W 093°22'0 0.0
2017-Sep-02 14:31N 30°04' W 093°22'0 0.0
2017-Sep-02 14:01N 30°04' W 093°22'0 0.0
2017-Sep-02 13:31N 30°04' W 093°22'0 0.0
2017-Sep-02 13:00N 30°04' W 093°22'0 0.0
2017-Sep-02 12:31N 30°04' W 093°22'0 0.0
2017-Sep-02 12:01N 30°04' W 093°22'0 0.0
2017-Sep-02 11:31N 30°04' W 093°22'0 0.0
2017-Sep-02 11:01N 30°04' W 093°22'0 0.0
2017-Sep-02 10:31N 30°04' W 093°22'0 0.0
2017-Sep-02 10:00N 30°04' W 093°22'0 0.0
2017-Sep-02 09:31N 30°04' W 093°22'0 0.0
2017-Sep-02 09:01N 30°04' W 093°22'0 0.0
2017-Sep-02 08:31N 30°04' W 093°22'0 0.0
2017-Sep-02 08:01N 30°04' W 093°22'0 0.0
2017-Sep-02 07:31N 30°04' W 093°22'0 0.0
2017-Sep-02 07:01N 30°04' W 093°22'0 0.0
2017-Sep-02 06:31N 30°04' W 093°22'0 0.0
2017-Sep-02 06:00N 30°04' W 093°22'0 0.0
2017-Sep-02 05:30N 30°04' W 093°22'0 0.0
2017-Sep-02 05:01N 30°04' W 093°22'0 0.0
2017-Sep-02 04:31N 30°04' W 093°22'0 0.0
2017-Sep-02 04:01N 30°04' W 093°22'0 0.0
2017-Sep-02 03:31N 30°04' W 093°22'0 0.0
2017-Sep-02 03:01N 30°04' W 093°22'0 0.0
2017-Sep-02 02:30N 30°04' W 093°22'0 0.0
2017-Sep-02 02:01N 30°04' W 093°22'0 0.0
2017-Sep-02 01:31N 30°04' W 093°22'0 0.0
2017-Sep-02 01:01N 30°04' W 093°22'0 0.0
2017-Sep-02 00:31N 30°04' W 093°22'0 0.0
2017-Sep-02 00:00N 30°04' W 093°22'0 0.0
2017-Sep-01 23:31N 30°04' W 093°22'0 0.0
2017-Sep-01 23:00N 30°04' W 093°22'0 0.0
2017-Sep-01 22:31N 30°04' W 093°22'0 0.0
2017-Sep-01 22:01N 30°04' W 093°22'0 0.0
2017-Sep-01 21:31N 30°04' W 093°22'0 0.0
2017-Sep-01 21:00N 30°04' W 093°22'0 0.0
2017-Sep-01 20:31N 30°04' W 093°22'0 0.0
2017-Sep-01 20:01N 30°04' W 093°22'0 0.0
2017-Sep-01 19:31N 30°04' W 093°22'0 0.0
2017-Sep-01 19:01N 30°04' W 093°22'0 0.0
2017-Sep-01 18:30N 30°04' W 093°22'0 0.0
2017-Sep-01 18:01N 30°04' W 093°22'0 0.0
2017-Sep-01 17:30N 30°04' W 093°22'1 1.5
2017-Sep-01 17:01N 30°04' W 093°21'1 2.5
2017-Sep-01 16:31N 30°05' W 093°20'1 2.2
2017-Sep-01 16:00N 30°06' W 093°20'0 0.0
2017-Sep-01 15:30N 30°06' W 093°20'0 0.0
2017-Sep-01 15:00N 30°06' W 093°20'0 0.1
2017-Sep-01 14:30N 30°06' W 093°20'1 2.6
2017-Sep-01 14:00N 30°07' W 093°20'3 5.5
2017-Sep-01 13:30N 30°10' W 093°19'1 2.8
2017-Sep-01 13:00N 30°11' W 093°18'0 0.0
2017-Sep-01 12:30N 30°11' W 093°18'0 0.0
2017-Sep-01 12:00N 30°11' W 093°18'0 0.0
2017-Sep-01 11:30N 30°11' W 093°18'0 0.0
2017-Sep-01 11:00N 30°11' W 093°18'0 0.0
2017-Sep-01 10:30N 30°11' W 093°18'0 0.0
2017-Sep-01 10:00N 30°11' W 093°18'0 0.0
2017-Sep-01 09:30N 30°11' W 093°18'0 0.0
2017-Sep-01 09:00N 30°11' W 093°18'0 0.0
2017-Sep-01 08:30N 30°11' W 093°18'0 0.0
2017-Sep-01 08:00N 30°11' W 093°18'0 0.0
2017-Sep-01 07:30N 30°11' W 093°18'0 0.0
2017-Sep-01 07:00N 30°11' W 093°18'0 0.0
2017-Sep-01 06:30N 30°11' W 093°18'0 0.0
2017-Sep-01 06:00N 30°11' W 093°18'0 0.0
2017-Sep-01 05:30N 30°11' W 093°18'0 0.0
2017-Sep-01 05:00N 30°11' W 093°18'0 0.0
2017-Sep-01 04:30N 30°11' W 093°18'0 0.0
2017-Sep-01 04:00N 30°11' W 093°18'0 0.0
2017-Sep-01 03:30N 30°11' W 093°18'0 0.0
2017-Sep-01 03:00N 30°11' W 093°18'0 0.0
2017-Sep-01 02:30N 30°11' W 093°18'0 0.0
2017-Sep-01 02:00N 30°11' W 093°18'0 0.0
2017-Sep-01 01:30N 30°11' W 093°18'0 0.6
2017-Sep-01 01:00N 30°11' W 093°19'0 0.0
2017-Sep-01 00:30N 30°11' W 093°19'0 0.0
2017-Sep-01 00:00N 30°11' W 093°19'0 0.0
2017-Aug-31 23:30N 30°11' W 093°19'0 0.0
2017-Aug-31 23:00N 30°11' W 093°19'0 0.0
2017-Aug-31 22:30N 30°11' W 093°19'0 0.0
2017-Aug-31 22:00N 30°11' W 093°19'0 0.0
2017-Aug-31 21:30N 30°11' W 093°19'0 0.0
2017-Aug-31 21:00N 30°11' W 093°19'0 0.0
2017-Aug-31 20:30N 30°11' W 093°19'0 0.0
2017-Aug-31 20:00N 30°11' W 093°19'0 0.0
2017-Aug-31 19:30N 30°11' W 093°19'  

Dump ship's entire track history